Beaman, IA (50609)

9:58 PM CST on December 08, 2016 (GMT -0600)
Green Mountain | | Change Station

Elev 997 ft 42.12 °N, 92.83 °W | Updated 35 seconds ago

Overcast
Overcast
17.7 °F
Feels Like 2 °F
N
18.0
Wind Variable Wind from NW

Today
High -- | Low -- °F
--% Chance of Precip.
Yesterday
High -- | Low -- °F
Precip. -- in
Pressure 30.59 in
Visibility 10.0 miles
Clouds Overcast 2400 ft
Windchill 2 °F
Dew Point 12 °F
Humidity 80%
Rainfall 0.00 in
Snow Depth Not available.
7:27 AM 4:39 PM
Waxing Gibbous, 70% visible
METAR KMIW 090353Z AUTO 31016KT 10SM OVC024 M07/M12 A3053 RMK AO2 SNB12E24 SLP358 P0000 T10721117
Pressure 30.59 in
Visibility 10.0 miles
Clouds Overcast 2400 ft
Windchill 2 °F
Dew Point 12 °F
Humidity 80%
Rainfall 0.00 in
Snow Depth Not available.
7:27 AM 4:39 PM
Waxing Gibbous, 70% visible
METAR KMIW 090353Z AUTO 31016KT 10SM OVC024 M07/M12 A3053 RMK AO2 SNB12E24 SLP358 P0000 T10721117

10-Day Weather Forecast

Almanac

Astronomy

Dec. 08, 2016 Rise Set
Actual Time
Civil Twilight
Nautical Twilight
Astronomical Twilight
Moon
Length of Visible Light
Length of Day
Tomorrow will be .
, % of the Moon is Illuminated

Today's Extremes

State Highs State Lows

Community

WunderPhotos

Upload Photos

1,956,370 photos uploaded!

WunderBlog® & News

Nearby

Air Quality

  Air Quality AQ Index Pollutant
Not available.

Snow Depth

Station Depth Elevation

Earthquake Activity

City Distance Mag. Time & Date
Minimum magnitude displayed is 2.5.

Coastal Water Temperatures

Place Temperature

Stations

Nearby Weather Stations

Station Location Temp. Windchill Dew Point Humidity Wind Precip. Elev Updated Type
                   

Watches & Warnings

There are currently no watches in effect.